Unicom:                    122.8

AWOS:                  118.275

Elevation           1458’ MSL

TPA:                   2500’ MSL

06/24:         5003’ L   75’ W

PAPI:       06/Left     24/Left

(Operate lights on unicom freq.)

Traffic Pattern: Left

Beacon: Sunset to Sunrise

Windsock: yes, lighted

Segmented Circle: No

 

Cleveland Center: 126.72/291.65

FSS: Altoona

[Source: ADDS]
METAR
KFKL 080556Z AUTO 19003KT 10SM FEW041 02/01 A2985 RMK AO2 SLP120 T00170011 10061 20017 56016 FZRANO =
KFKL 080531Z 0806/0906 27004KT P6SM BKN045 FM080700 00000KT P6SM -SHRASN BKN025 FM080900 28005KT 6SM -SHRASN OVC007 FM081200 30007KT P6SM OVC010 FM081800 30007KT P6SM OVC025 FM082100 28006KT P6SM OVC050 FM090000 25003KT P6SM BKN050
TAF
KFKL 080531Z 0806/0906 27004KT P6SM BKN045 FM080700 00000KT P6SM -SHRASN BKN025 FM080900 28005KT 6SM -SHRASN OVC007 FM081200 30007KT P6SM OVC010 FM081800 30007KT P6SM OVC025 FM082100 28006KT P6SM OVC050 FM090000 25003KT P6SM BKN050 =
[Source: ADDS]
METAR
KDUJ 080605Z AUTO 00000KT 2 1/2SM BR FEW065 01/M01 A2983 RMK AO2 T00111006 =
KDUJ 080531Z 0806/0906 00000KT P6SM BKN050 FM081000 29005KT 4SM -SHRASN OVC015 FM081200 30005KT 5SM -SHRA BKN007 FM081500 29009KT P6SM VCSH BKN015 FM082100 29011KT P6SM OVC050 FM090100 29004KT P6SM BKN050
TAF
KDUJ 080531Z 0806/0906 00000KT P6SM BKN050 FM081000 29005KT 4SM -SHRASN OVC015 FM081200 30005KT 5SM -SHRA BKN007 FM081500 29009KT P6SM VCSH BKN015 FM082100 29011KT P6SM OVC050 FM090100 29004KT P6SM BKN050 =

Development areas as listed in the Pennsylvania Department of Transportation,

Bureau of Aviation Airport Properties Directory

 

Area 1 - 7 acre area for development needing access to runway 

Area 2 - 7 acre area for development not needing access to runway

There are several other Industrial Development areas available on the airport, and at other sites with easy access to the airport.

Please contact the Clarion County Airport Authority at (814) 226 - 9993, or manager@clarionairport.com

You can also contact the Clarion County Economic Development Corporation at (814) 226 - 9045.

 

Resourceful Links:

Clarion Chamber of Commerce https://www.clarionpa.com/

Clarion County Economic Development Corporation http://www.callclarionpa.com/